John James Audubon — WDE8037 — position and weather

sailwx.info

Track history (hours):
 
Tides and Currents Weather Stations Pressure Air Temp Water Temp Dewpoint Dewpoint Depression Visibility Wind Speed Wind Dir Waves Ship Positions

John James Audubon

Owner: Statue Cruises, Jersey City, NJ. More information available from US FCC via Universal Licensing System and Coast Guard Vessel Documentation Center.

Last reported at 2016-Aug-24 17:33 UTC. Time now 2016-Aug-24 18:01 UTC.
Position N 40°42' W 074°00'.

Length 37 m.

Type: Ship. MMSI: 367400770.

Date/timePositionNaut miles runAvg speedWind from/ knotsBaromVisibWave heightAir tempDewpointWater temp
2016-Aug-24 17:33N 40°42' W 074°00'0 0.0
2016-Aug-24 16:33N 40°42' W 074°00'1 1.2
2016-Aug-24 15:34N 40°42' W 074°01'1 1.2
2016-Aug-24 14:34N 40°42' W 074°00'0 0.0
2016-Aug-24 13:33N 40°42' W 074°00'2 1.6
2016-Aug-24 12:34N 40°44' W 074°01'1 0.1
2016-Aug-24 02:34N 40°43' W 074°01'2 2.4
2016-Aug-24 01:34N 40°41' W 074°02'3 3.0
2016-Aug-24 00:34N 40°44' W 074°01'0 0.2
2016-Aug-23 23:34N 40°44' W 074°01'0 0.0
2016-Aug-23 20:03N 40°44' W 074°01'2 3.2
2016-Aug-23 19:33N 40°42' W 074°00'0 0.0
2016-Aug-23 18:33N 40°42' W 074°00'1 1.2
2016-Aug-23 17:33N 40°42' W 074°01'1 1.2
2016-Aug-23 16:33N 40°42' W 074°00'0 0.0
2016-Aug-23 15:33N 40°42' W 074°00'1 1.4
2016-Aug-23 14:33N 40°41' W 074°02'1 1.4
2016-Aug-23 13:33N 40°42' W 074°00'2 1.6
2016-Aug-23 12:33N 40°44' W 074°01'0 0.0
2016-Aug-22 22:33N 40°44' W 074°01'2 2.4
2016-Aug-22 21:34N 40°42' W 074°01'1 1.2
2016-Aug-22 20:34N 40°42' W 074°00'0 0.0
2016-Aug-22 19:34N 40°42' W 074°00'1 1.5
2016-Aug-22 18:34N 40°41' W 074°02'1 1.5
2016-Aug-22 17:33N 40°42' W 074°00'0 0.0
2016-Aug-22 16:33N 40°42' W 074°00'1 1.4
2016-Aug-22 15:34N 40°42' W 074°02'1 1.4
2016-Aug-22 14:34N 40°42' W 074°00'0 0.0
2016-Aug-22 13:34N 40°42' W 074°00'2 0.1
2016-Aug-21 22:33N 40°44' W 074°01'3 3.1
2016-Aug-21 21:33N 40°41' W 074°01'2 1.7
2016-Aug-21 20:33N 40°42' W 074°00'0 0.0
2016-Aug-21 19:33N 40°42' W 074°00'2 1.6
2016-Aug-21 18:34N 40°41' W 074°02'2 1.6
2016-Aug-21 17:33N 40°42' W 074°00'0 0.0
2016-Aug-21 16:34N 40°42' W 074°00'2 1.6
2016-Aug-21 15:34N 40°41' W 074°02'2 1.6
2016-Aug-21 14:33N 40°42' W 074°00'0 0.0
2016-Aug-21 13:34N 40°42' W 074°00'2 0.2
2016-Aug-21 03:34N 40°42' W 074°02'2 2.5
2016-Aug-21 02:33N 40°44' W 074°01'0 0.5
2016-Aug-21 01:33N 40°44' W 074°01'0 0.0
2016-Aug-21 00:33N 40°44' W 074°01'0 0.0
2016-Aug-20 22:32N 40°44' W 074°01'3 3.3
2016-Aug-20 21:34N 40°41' W 074°02'2 1.9
2016-Aug-20 20:33N 40°42' W 074°00'0 0.0
2016-Aug-20 19:33N 40°42' W 074°00'2 1.8
2016-Aug-20 18:33N 40°41' W 074°02'2 1.8
2016-Aug-20 17:33N 40°42' W 074°00'0 0.0
2016-Aug-20 16:33N 40°42' W 074°00'2 1.5
2016-Aug-20 15:33N 40°41' W 074°02'2 1.5
2016-Aug-20 14:33N 40°42' W 074°00'0 0.0
2016-Aug-20 13:33N 40°42' W 074°00'2 0.1
2016-Aug-20 02:31N 40°44' W 074°01'0 0.0
2016-Aug-20 01:32N 40°44' W 074°01'0 0.0
2016-Aug-20 00:21N 40°44' W 074°01'0 0.0
2016-Aug-19 23:32N 40°44' W 074°01'1 0.8
2016-Aug-19 22:33N 40°43' W 074°01'2 1.8
2016-Aug-19 21:34N 40°41' W 074°02'2 1.7
2016-Aug-19 20:34N 40°42' W 074°00'0 0.0
2016-Aug-19 19:34N 40°42' W 074°00'1 1.2
2016-Aug-19 18:33N 40°42' W 074°01'1 1.2
2016-Aug-19 17:33N 40°42' W 074°00'0 0.0
2016-Aug-19 16:33N 40°42' W 074°00'1 1.2
2016-Aug-19 15:34N 40°42' W 074°01'1 1.2
2016-Aug-19 14:34N 40°42' W 074°00'0 0.0
2016-Aug-19 13:34N 40°42' W 074°00'2 0.1
2016-Aug-18 23:08N 40°44' W 074°01'0 0.0
2016-Aug-18 22:33N 40°44' W 074°01'2 2.3
2016-Aug-18 21:33N 40°42' W 074°01'1 1.1
2016-Aug-18 20:33N 40°42' W 074°00'0 0.0
2016-Aug-18 19:34N 40°42' W 074°00'1 1.2
2016-Aug-18 18:34N 40°42' W 074°01'1 1.2
2016-Aug-18 17:33N 40°42' W 074°00'0 0.0
2016-Aug-18 16:33N 40°42' W 074°00'1 1.3
2016-Aug-18 15:33N 40°41' W 074°02'1 1.3
2016-Aug-18 14:33N 40°42' W 074°00'0 0.0
2016-Aug-18 13:33N 40°42' W 074°00'2 0.1
2016-Aug-17 22:32N 40°44' W 074°01'3 3.2
2016-Aug-17 21:33N 40°41' W 074°02'2 1.8
2016-Aug-17 20:33N 40°42' W 074°00'0 0.0
2016-Aug-17 19:33N 40°42' W 074°00'2 1.5
2016-Aug-17 18:33N 40°41' W 074°02'2 1.5
2016-Aug-17 17:33N 40°42' W 074°00'0 0.0
2016-Aug-17 16:33N 40°42' W 074°00'2 1.9
2016-Aug-17 15:33N 40°41' W 074°02'2 1.9
2016-Aug-17 14:33N 40°42' W 074°00'0 0.0
2016-Aug-17 13:33N 40°42' W 074°00'2 1.6
2016-Aug-17 12:33N 40°44' W 074°01'0 0.0
2016-Aug-17 03:19N 40°44' W 074°01'1 1.0
2016-Aug-17 02:33N 40°45' W 074°01'3 2.6
2016-Aug-17 01:33N 40°42' W 074°01'1 0.6
2016-Aug-17 00:33N 40°43' W 074°01'1 1.3
2016-Aug-16 23:33N 40°44' W 074°01'0 0.0
2016-Aug-16 22:33N 40°44' W 074°01'0 0.0
2016-Aug-16 21:33N 40°44' W 074°01'0 0.2
2016-Aug-16 20:33N 40°44' W 074°01'2 1.7
2016-Aug-16 19:33N 40°42' W 074°00'0 0.0
2016-Aug-16 18:33N 40°42' W 074°00'2 1.6
2016-Aug-16 17:33N 40°41' W 074°02'2 1.6
2016-Aug-16 16:33N 40°42' W 074°00'0 0.0
2016-Aug-16 15:33N 40°42' W 074°00'1 1.4
2016-Aug-16 14:33N 40°42' W 074°02'1 1.4
2016-Aug-16 13:33N 40°42' W 074°00'2 1.6
2016-Aug-16 12:33N 40°44' W 074°01'0 0.0
2016-Aug-15 22:33N 40°44' W 074°01'3 2.7
2016-Aug-15 21:34N 40°41' W 074°02'2 1.6
2016-Aug-15 20:33N 40°42' W 074°00'0 0.0
2016-Aug-15 19:33N 40°42' W 074°00'2 1.9
2016-Aug-15 18:33N 40°41' W 074°02'2 2.0
2016-Aug-15 17:34N 40°42' W 074°00'0 0.0
2016-Aug-15 16:33N 40°42' W 074°00'2 1.7
2016-Aug-15 15:34N 40°41' W 074°02'2 1.7
2016-Aug-15 14:33N 40°42' W 074°00'0 0.0
2016-Aug-15 13:33N 40°42' W 074°00'2 1.5
2016-Aug-15 12:30N 40°44' W 074°01'0 0.0
2016-Aug-15 01:34N 40°43' W 074°01'3 2.6
2016-Aug-15 00:34N 40°41' W 074°03'3 0.8
2016-Aug-14 20:32N 40°44' W 074°01'2 1.6
2016-Aug-14 19:33N 40°42' W 074°00'0 0.0
2016-Aug-14 18:33N 40°42' W 074°00'1 1.5
2016-Aug-14 17:33N 40°41' W 074°02'  
Track history (hours):
 
Tides and Currents Weather Stations Pressure Air Temp Water Temp Dewpoint Dewpoint Depression Visibility Wind Speed Wind Dir Waves Ship Positions

John James Audubon

Owner: Statue Cruises, Jersey City, NJ. More information available from US FCC via Universal Licensing System and Coast Guard Vessel Documentation Center.

Last reported at 2016-Aug-24 17:33 UTC. Time now 2016-Aug-24 18:01 UTC.
Position N 40°42' W 074°00'.

Length 37 m.

Type: Ship. MMSI: 367400770.

Date/timePositionNaut miles runAvg speedWind from/ knotsBaromVisibWave heightAir tempDewpointWater temp
2016-Aug-24 17:33N 40°42' W 074°00'0 0.0
2016-Aug-24 16:33N 40°42' W 074°00'1 1.2
2016-Aug-24 15:34N 40°42' W 074°01'1 1.2
2016-Aug-24 14:34N 40°42' W 074°00'0 0.0
2016-Aug-24 13:33N 40°42' W 074°00'2 1.6
2016-Aug-24 12:34N 40°44' W 074°01'1 0.1
2016-Aug-24 02:34N 40°43' W 074°01'2 2.4
2016-Aug-24 01:34N 40°41' W 074°02'3 3.0
2016-Aug-24 00:34N 40°44' W 074°01'0 0.2
2016-Aug-23 23:34N 40°44' W 074°01'0 0.0
2016-Aug-23 20:03N 40°44' W 074°01'2 3.2
2016-Aug-23 19:33N 40°42' W 074°00'0 0.0
2016-Aug-23 18:33N 40°42' W 074°00'1 1.2
2016-Aug-23 17:33N 40°42' W 074°01'1 1.2
2016-Aug-23 16:33N 40°42' W 074°00'0 0.0
2016-Aug-23 15:33N 40°42' W 074°00'1 1.4
2016-Aug-23 14:33N 40°41' W 074°02'1 1.4
2016-Aug-23 13:33N 40°42' W 074°00'2 1.6
2016-Aug-23 12:33N 40°44' W 074°01'0 0.0
2016-Aug-22 22:33N 40°44' W 074°01'2 2.4
2016-Aug-22 21:34N 40°42' W 074°01'1 1.2
2016-Aug-22 20:34N 40°42' W 074°00'0 0.0
2016-Aug-22 19:34N 40°42' W 074°00'1 1.5
2016-Aug-22 18:34N 40°41' W 074°02'1 1.5
2016-Aug-22 17:33N 40°42' W 074°00'0 0.0
2016-Aug-22 16:33N 40°42' W 074°00'1 1.4
2016-Aug-22 15:34N 40°42' W 074°02'1 1.4
2016-Aug-22 14:34N 40°42' W 074°00'0 0.0
2016-Aug-22 13:34N 40°42' W 074°00'2 0.1
2016-Aug-21 22:33N 40°44' W 074°01'3 3.1
2016-Aug-21 21:33N 40°41' W 074°01'2 1.7
2016-Aug-21 20:33N 40°42' W 074°00'0 0.0
2016-Aug-21 19:33N 40°42' W 074°00'2 1.6
2016-Aug-21 18:34N 40°41' W 074°02'2 1.6
2016-Aug-21 17:33N 40°42' W 074°00'0 0.0
2016-Aug-21 16:34N 40°42' W 074°00'2 1.6
2016-Aug-21 15:34N 40°41' W 074°02'2 1.6
2016-Aug-21 14:33N 40°42' W 074°00'0 0.0
2016-Aug-21 13:34N 40°42' W 074°00'2 0.2
2016-Aug-21 03:34N 40°42' W 074°02'2 2.5
2016-Aug-21 02:33N 40°44' W 074°01'0 0.5
2016-Aug-21 01:33N 40°44' W 074°01'0 0.0
2016-Aug-21 00:33N 40°44' W 074°01'0 0.0
2016-Aug-20 22:32N 40°44' W 074°01'3 3.3
2016-Aug-20 21:34N 40°41' W 074°02'2 1.9
2016-Aug-20 20:33N 40°42' W 074°00'0 0.0
2016-Aug-20 19:33N 40°42' W 074°00'2 1.8
2016-Aug-20 18:33N 40°41' W 074°02'2 1.8
2016-Aug-20 17:33N 40°42' W 074°00'0 0.0
2016-Aug-20 16:33N 40°42' W 074°00'2 1.5
2016-Aug-20 15:33N 40°41' W 074°02'2 1.5
2016-Aug-20 14:33N 40°42' W 074°00'0 0.0
2016-Aug-20 13:33N 40°42' W 074°00'2 0.1
2016-Aug-20 02:31N 40°44' W 074°01'0 0.0
2016-Aug-20 01:32N 40°44' W 074°01'0 0.0
2016-Aug-20 00:21N 40°44' W 074°01'0 0.0
2016-Aug-19 23:32N 40°44' W 074°01'1 0.8
2016-Aug-19 22:33N 40°43' W 074°01'2 1.8
2016-Aug-19 21:34N 40°41' W 074°02'2 1.7
2016-Aug-19 20:34N 40°42' W 074°00'0 0.0
2016-Aug-19 19:34N 40°42' W 074°00'1 1.2
2016-Aug-19 18:33N 40°42' W 074°01'1 1.2
2016-Aug-19 17:33N 40°42' W 074°00'0 0.0
2016-Aug-19 16:33N 40°42' W 074°00'1 1.2
2016-Aug-19 15:34N 40°42' W 074°01'1 1.2
2016-Aug-19 14:34N 40°42' W 074°00'0 0.0
2016-Aug-19 13:34N 40°42' W 074°00'2 0.1
2016-Aug-18 23:08N 40°44' W 074°01'0 0.0
2016-Aug-18 22:33N 40°44' W 074°01'2 2.3
2016-Aug-18 21:33N 40°42' W 074°01'1 1.1
2016-Aug-18 20:33N 40°42' W 074°00'0 0.0
2016-Aug-18 19:34N 40°42' W 074°00'1 1.2
2016-Aug-18 18:34N 40°42' W 074°01'1 1.2
2016-Aug-18 17:33N 40°42' W 074°00'0 0.0
2016-Aug-18 16:33N 40°42' W 074°00'1 1.3
2016-Aug-18 15:33N 40°41' W 074°02'1 1.3
2016-Aug-18 14:33N 40°42' W 074°00'0 0.0
2016-Aug-18 13:33N 40°42' W 074°00'2 0.1
2016-Aug-17 22:32N 40°44' W 074°01'3 3.2
2016-Aug-17 21:33N 40°41' W 074°02'2 1.8
2016-Aug-17 20:33N 40°42' W 074°00'0 0.0
2016-Aug-17 19:33N 40°42' W 074°00'2 1.5
2016-Aug-17 18:33N 40°41' W 074°02'2 1.5
2016-Aug-17 17:33N 40°42' W 074°00'0 0.0
2016-Aug-17 16:33N 40°42' W 074°00'2 1.9
2016-Aug-17 15:33N 40°41' W 074°02'2 1.9
2016-Aug-17 14:33N 40°42' W 074°00'0 0.0
2016-Aug-17 13:33N 40°42' W 074°00'2 1.6
2016-Aug-17 12:33N 40°44' W 074°01'0 0.0
2016-Aug-17 03:19N 40°44' W 074°01'1 1.0
2016-Aug-17 02:33N 40°45' W 074°01'3 2.6
2016-Aug-17 01:33N 40°42' W 074°01'1 0.6
2016-Aug-17 00:33N 40°43' W 074°01'1 1.3
2016-Aug-16 23:33N 40°44' W 074°01'0 0.0
2016-Aug-16 22:33N 40°44' W 074°01'0 0.0
2016-Aug-16 21:33N 40°44' W 074°01'0 0.2
2016-Aug-16 20:33N 40°44' W 074°01'2 1.7
2016-Aug-16 19:33N 40°42' W 074°00'0 0.0
2016-Aug-16 18:33N 40°42' W 074°00'2 1.6
2016-Aug-16 17:33N 40°41' W 074°02'2 1.6
2016-Aug-16 16:33N 40°42' W 074°00'0 0.0
2016-Aug-16 15:33N 40°42' W 074°00'1 1.4
2016-Aug-16 14:33N 40°42' W 074°02'1 1.4
2016-Aug-16 13:33N 40°42' W 074°00'2 1.6
2016-Aug-16 12:33N 40°44' W 074°01'0 0.0
2016-Aug-15 22:33N 40°44' W 074°01'3 2.7
2016-Aug-15 21:34N 40°41' W 074°02'2 1.6
2016-Aug-15 20:33N 40°42' W 074°00'0 0.0
2016-Aug-15 19:33N 40°42' W 074°00'2 1.9
2016-Aug-15 18:33N 40°41' W 074°02'2 2.0
2016-Aug-15 17:34N 40°42' W 074°00'0 0.0
2016-Aug-15 16:33N 40°42' W 074°00'2 1.7
2016-Aug-15 15:34N 40°41' W 074°02'2 1.7
2016-Aug-15 14:33N 40°42' W 074°00'0 0.0
2016-Aug-15 13:33N 40°42' W 074°00'2 1.5
2016-Aug-15 12:30N 40°44' W 074°01'0 0.0
2016-Aug-15 01:34N 40°43' W 074°01'3 2.6
2016-Aug-15 00:34N 40°41' W 074°03'3 0.8
2016-Aug-14 20:32N 40°44' W 074°01'2 1.6
2016-Aug-14 19:33N 40°42' W 074°00'0 0.0
2016-Aug-14 18:33N 40°42' W 074°00'1 1.5
2016-Aug-14 17:33N 40°41' W 074°02'  

Dump ship's entire track history